createdAt,value
2019-04-22T00:00:44.824Z,28.30
2019-04-22T00:03:17.971Z,25.95
2019-04-22T00:06:07.251Z,30.57
2019-04-22T00:08:43.289Z,29.98
2019-04-22T00:11:23.980Z,31.90
2019-04-22T00:13:55.546Z,31.07
2019-04-22T00:16:19.143Z,27.48
2019-04-22T00:19:02.983Z,25.77
2019-04-22T00:21:26.355Z,26.33
2019-04-22T00:23:52.587Z,26.85
2019-04-22T00:26:26.103Z,22.42
2019-04-22T00:28:59.302Z,26.30
2019-04-22T00:31:47.963Z,30.55
2019-04-22T00:34:21.283Z,26.75
2019-04-22T00:36:48.118Z,23.47
2019-04-22T00:39:33.722Z,23.05
2019-04-22T00:41:57.022Z,21.65
2019-04-22T00:44:29.992Z,34.35
2019-04-22T00:47:01.191Z,53.90
2019-04-22T00:52:06.285Z,43.05
2019-04-22T00:54:36.217Z,35.75
2019-04-22T00:57:01.532Z,32.55
2019-04-22T00:59:28.646Z,29.95
2019-04-22T01:02:07.561Z,23.95
2019-04-22T01:04:44.211Z,23.10
2019-04-22T01:07:11.521Z,28.57
2019-04-22T01:09:46.383Z,30.27
2019-04-22T01:12:13.630Z,31.68
2019-04-22T01:14:41.311Z,42.65
2019-04-22T01:17:12.117Z,29.65
2019-04-22T01:19:52.616Z,32.88
2019-04-22T01:22:17.579Z,27.37
2019-04-22T01:24:50.279Z,24.72
2019-04-22T01:27:17.469Z,25.60
2019-04-22T01:29:46.906Z,27.55
2019-04-22T01:32:13.198Z,45.58
2019-04-22T01:34:51.513Z,49.50
2019-04-22T01:37:27.094Z,50.60
2019-04-22T01:40:06.569Z,46.83
2019-04-22T01:42:44.370Z,56.37
2019-04-22T01:45:06.681Z,57.85
2019-04-22T01:47:36.744Z,50.28
2019-04-22T01:50:12.124Z,52.03
2019-04-22T01:52:47.360Z,46.15
2019-04-22T01:55:22.595Z,36.65
2019-04-22T01:57:44.479Z,32.53
2019-04-22T02:00:05.051Z,35.92
2019-04-22T02:02:48.957Z,61.53
2019-04-22T02:05:19.068Z,58.30
2019-04-22T02:07:51.538Z,30.00
2019-04-22T02:10:30.130Z,44.27
2019-04-22T02:12:58.803Z,37.65
2019-04-22T02:15:23.783Z,33.02
2019-04-22T02:18:01.239Z,29.77
2019-04-22T02:20:31.112Z,30.43
2019-04-22T02:26:13.022Z,32.90
2019-04-22T02:28:47.653Z,26.33
2019-04-22T02:36:23.027Z,38.17
2019-04-22T02:38:58.774Z,42.33
2019-04-22T02:49:04.157Z,32.33
2019-04-22T02:51:22.164Z,30.02
2019-04-22T02:56:39.610Z,34.90
2019-04-22T03:14:04.866Z,29.70
2019-04-22T03:26:50.431Z,55.73
2019-04-22T03:29:14.932Z,44.58
2019-04-22T03:37:23.315Z,55.55
2019-04-22T03:44:51.790Z,64.90
2019-04-22T03:47:21.676Z,27.73
2019-04-22T03:52:18.046Z,109.95
2019-04-22T03:54:47.698Z,81.05
2019-04-22T03:59:51.950Z,29.12
2019-04-22T04:02:22.001Z,38.88
2019-04-22T04:04:41.615Z,31.07
2019-04-22T04:12:25.160Z,36.17
2019-04-22T04:15:06.064Z,31.23
2019-04-22T04:17:37.832Z,34.48
2019-04-22T04:22:46.661Z,29.65
2019-04-22T04:25:22.077Z,26.10
2019-04-22T04:32:52.517Z,29.50
2019-04-22T04:37:44.579Z,26.10
2019-04-22T04:40:28.811Z,29.18
2019-04-22T04:42:46.262Z,24.72
2019-04-22T04:50:18.382Z,24.27
2019-04-22T04:53:01.458Z,28.85
2019-04-22T04:55:25.864Z,25.77
2019-04-22T04:58:13.789Z,22.52
2019-04-22T05:00:37.328Z,24.40
2019-04-22T05:02:58.471Z,26.85
2019-04-22T05:05:28.884Z,19.85
2019-04-22T05:07:55.413Z,19.85
2019-04-22T05:10:47.807Z,21.02
2019-04-22T05:18:05.763Z,20.00
2019-04-22T05:20:44.826Z,21.30
2019-04-22T05:23:08.301Z,19.55
2019-04-22T05:25:31.980Z,22.93
2019-04-22T05:28:07.550Z,20.43
2019-04-22T05:30:43.738Z,18.30
2019-04-22T05:33:09.300Z,20.62
2019-04-22T05:35:43.102Z,18.17
2019-04-22T05:38:17.264Z,19.27
2019-04-22T05:40:44.103Z,18.90
2019-04-22T05:43:22.615Z,25.82
2019-04-22T05:45:52.680Z,21.73
2019-04-22T05:48:30.170Z,19.92
2019-04-22T05:50:56.436Z,18.10
2019-04-22T05:53:25.892Z,16.73
2019-04-22T05:55:59.749Z,17.90
2019-04-22T05:58:29.376Z,17.20
2019-04-22T06:03:49.270Z,15.15
2019-04-22T06:06:22.574Z,16.40
2019-04-22T06:08:55.895Z,15.60
2019-04-22T06:11:29.393Z,14.90
2019-04-22T06:13:51.967Z,14.40
2019-04-22T06:16:31.280Z,14.40
2019-04-22T06:21:35.429Z,12.75
2019-04-22T06:24:14.128Z,12.28
2019-04-22T06:29:15.010Z,8.45
2019-04-22T06:32:08.093Z,9.58
2019-04-22T06:34:20.838Z,11.73
2019-04-22T06:39:25.975Z,8.55
2019-04-22T06:41:58.877Z,7.53
2019-04-22T06:47:05.326Z,8.20
2019-04-22T06:49:38.334Z,7.53
2019-04-22T06:52:16.881Z,7.37
2019-04-22T06:55:05.963Z,7.40
2019-04-22T06:57:13.786Z,7.40
2019-04-22T07:00:06.353Z,7.10
2019-04-22T07:02:26.713Z,7.75
2019-04-22T07:04:49.471Z,8.40
2019-04-22T07:07:22.055Z,7.70
2019-04-22T07:10:02.554Z,7.17
2019-04-22T07:12:26.033Z,7.35
2019-04-22T07:15:01.696Z,6.75
2019-04-22T07:20:48.057Z,7.40
2019-04-22T07:23:25.917Z,8.35
2019-04-22T07:25:49.921Z,7.17
2019-04-22T07:34:47.402Z,8.88
2019-04-22T07:37:29.598Z,7.90
2019-04-22T07:40:01.845Z,7.70
2019-04-22T07:42:30.035Z,8.73
2019-04-22T07:44:54.841Z,8.40
2019-04-22T07:50:08.427Z,8.60
2019-04-22T07:52:33.643Z,9.63
2019-04-22T07:55:18.377Z,9.00
2019-04-22T07:57:39.654Z,8.58
2019-04-22T08:00:15.987Z,8.35
2019-04-22T08:05:20.650Z,6.37
2019-04-22T08:08:02.605Z,6.58
2019-04-22T08:10:30.209Z,6.65
2019-04-22T08:13:01.924Z,7.00
2019-04-22T08:15:33.069Z,6.37
2019-04-22T08:18:02.928Z,6.47
2019-04-22T08:20:35.081Z,6.78
2019-04-22T08:23:09.247Z,6.80
2019-04-22T08:26:11.144Z,7.05
2019-04-22T08:28:46.498Z,8.55
2019-04-22T08:31:20.295Z,8.43
2019-04-22T08:34:01.731Z,7.58
2019-04-22T08:37:12.169Z,8.65
2019-04-22T08:39:21.445Z,11.90
2019-04-22T08:41:40.310Z,8.18
2019-04-22T08:44:27.967Z,7.10
2019-04-22T08:46:56.168Z,7.90
2019-04-22T08:49:30.477Z,7.50
2019-04-22T08:51:58.881Z,8.60
2019-04-22T08:54:33.412Z,7.85
2019-04-22T08:57:06.802Z,15.00
2019-04-22T08:59:39.565Z,10.48
2019-04-22T09:02:19.959Z,8.50
2019-04-22T09:04:45.373Z,7.17
2019-04-22T09:07:21.189Z,7.65
2019-04-22T09:09:55.684Z,7.87
2019-04-22T09:12:33.147Z,7.55
2019-04-22T09:14:47.595Z,7.55
2019-04-22T09:17:31.823Z,8.10
2019-04-22T09:20:00.003Z,9.90
2019-04-22T09:22:50.344Z,8.40
2019-04-22T09:25:03.094Z,8.10
2019-04-22T09:27:42.959Z,7.42
2019-04-22T09:30:22.390Z,7.75
2019-04-22T09:32:56.247Z,9.28
2019-04-22T09:35:25.125Z,7.75
2019-04-22T09:37:57.364Z,7.70
2019-04-22T09:40:21.691Z,8.18
2019-04-22T09:42:56.148Z,7.42
2019-04-22T09:45:27.563Z,8.88
2019-04-22T09:48:08.388Z,7.58
2019-04-22T09:53:08.327Z,8.23
2019-04-22T09:55:37.396Z,8.88
2019-04-22T09:58:11.878Z,9.15
2019-04-22T10:00:55.876Z,7.65
2019-04-22T10:03:20.357Z,7.17
2019-04-22T10:05:52.728Z,8.20
2019-04-22T10:08:24.072Z,7.95
2019-04-22T10:10:57.732Z,7.92
2019-04-22T10:13:34.711Z,7.58
2019-04-22T10:16:08.061Z,8.25
2019-04-22T10:18:41.738Z,6.47
2019-04-22T10:21:18.862Z,6.47
2019-04-22T10:23:41.672Z,10.45
2019-04-22T10:26:18.828Z,6.75
2019-04-22T10:28:52.805Z,10.35
2019-04-22T10:31:19.397Z,9.18
2019-04-22T10:33:42.252Z,10.70
2019-04-22T10:35:55.346Z,7.00
2019-04-22T10:38:26.476Z,6.72
2019-04-22T10:41:00.702Z,6.85
2019-04-22T10:43:32.821Z,7.20
2019-04-22T10:46:04.093Z,6.83
2019-04-22T10:52:06.941Z,7.12
2019-04-22T10:54:56.841Z,6.67
2019-04-22T10:57:27.640Z,8.73
2019-04-22T10:59:58.547Z,7.53
2019-04-22T11:02:31.826Z,7.08
2019-04-22T11:05:02.096Z,7.70
2019-04-22T11:07:40.453Z,7.28
2019-04-22T11:10:20.472Z,8.00
2019-04-22T11:12:39.460Z,7.30
2019-04-22T11:15:11.661Z,6.85
2019-04-22T11:17:41.870Z,7.75
2019-04-22T11:20:13.420Z,8.10
2019-04-22T11:22:44.628Z,7.30
2019-04-22T11:25:16.080Z,7.70
2019-04-22T11:27:47.688Z,7.33
2019-04-22T11:30:20.975Z,7.62
2019-04-22T11:32:50.653Z,7.70
2019-04-22T11:35:21.847Z,8.08
2019-04-22T11:38:06.592Z,8.10
2019-04-22T11:40:36.390Z,7.92
2019-04-22T11:43:00.002Z,7.87
2019-04-22T11:45:35.401Z,6.85
2019-04-22T11:48:09.048Z,6.75
2019-04-22T11:50:39.998Z,7.67
2019-04-22T11:53:10.983Z,7.95
2019-04-22T11:55:42.454Z,8.05
2019-04-22T11:58:12.938Z,6.97
2019-04-22T12:00:43.290Z,7.35
2019-04-22T12:03:14.807Z,6.87
2019-04-22T12:05:46.049Z,8.18
2019-04-22T12:08:17.251Z,8.40
2019-04-22T12:10:54.210Z,7.87
2019-04-22T12:13:19.837Z,8.00
2019-04-22T12:15:51.149Z,7.97
2019-04-22T12:18:22.931Z,7.47
2019-04-22T12:20:53.187Z,7.60
2019-04-22T12:23:23.208Z,8.35
2019-04-22T12:25:59.938Z,7.90
2019-04-22T12:28:26.691Z,6.95
2019-04-22T12:30:59.524Z,7.10
2019-04-22T12:33:29.654Z,7.65
2019-04-22T12:36:00.362Z,7.42
2019-04-22T12:38:31.500Z,7.33
2019-04-22T12:41:06.286Z,9.18
2019-04-22T12:43:33.658Z,9.15
2019-04-22T12:46:03.611Z,7.55
2019-04-22T12:48:34.927Z,7.45
2019-04-22T12:51:05.346Z,8.65
2019-04-22T12:53:38.129Z,7.55
2019-04-22T12:56:09.112Z,7.72
2019-04-22T12:58:39.024Z,8.73
2019-04-22T13:01:09.031Z,7.78
2019-04-22T13:03:42.727Z,8.63
2019-04-22T13:06:14.064Z,7.87
2019-04-22T13:08:47.665Z,9.23
2019-04-22T13:11:22.993Z,9.05
2019-04-22T13:13:53.013Z,8.68
2019-04-22T13:16:23.029Z,8.63
2019-04-22T13:18:59.043Z,8.13
2019-04-22T13:21:25.032Z,9.03
2019-04-22T13:24:02.529Z,8.38
2019-04-22T13:26:33.810Z,8.48
2019-04-22T13:29:05.188Z,8.95
2019-04-22T13:31:35.283Z,9.30
2019-04-22T13:34:09.493Z,11.38
2019-04-22T13:36:36.717Z,11.83
2019-04-22T13:41:48.038Z,8.08
2019-04-22T13:44:12.754Z,7.90
2019-04-22T13:47:06.818Z,9.30
2019-04-22T13:49:49.473Z,8.85
2019-04-22T13:52:31.939Z,8.95
2019-04-22T13:57:20.064Z,8.65
2019-04-22T13:59:38.890Z,9.10
2019-04-22T14:02:12.810Z,10.20
2019-04-22T14:04:48.829Z,9.05
2019-04-22T14:07:20.887Z,8.98
2019-04-22T14:09:50.819Z,9.08
2019-04-22T14:14:58.459Z,6.80
2019-04-22T14:17:32.499Z,7.42
2019-04-22T14:20:02.661Z,10.50
2019-04-22T14:22:32.585Z,7.30
2019-04-22T14:27:45.578Z,7.20
2019-04-22T14:30:06.447Z,7.40
2019-04-22T14:32:37.950Z,7.50
2019-04-22T14:35:09.395Z,7.72
2019-04-22T14:37:40.282Z,8.60
2019-04-22T14:40:12.305Z,8.90
2019-04-22T14:43:00.534Z,9.93
2019-04-22T14:46:04.025Z,9.78
2019-04-22T14:48:11.012Z,8.43
2019-04-22T14:50:42.245Z,8.40
2019-04-22T14:53:09.876Z,8.18
2019-04-22T14:55:26.907Z,9.45
2019-04-22T14:57:54.957Z,8.73
2019-04-22T15:00:27.274Z,9.00
2019-04-22T15:02:57.588Z,9.83
2019-04-22T15:07:59.168Z,10.10
2019-04-22T15:10:31.632Z,9.25
2019-04-22T15:13:03.089Z,8.60
2019-04-22T15:15:43.610Z,10.65
2019-04-22T15:18:10.765Z,10.43
2019-04-22T15:20:48.740Z,9.93
2019-04-22T15:23:17.643Z,9.38
2019-04-22T15:25:48.395Z,9.93
2019-04-22T15:28:19.827Z,9.80
2019-04-22T15:30:53.227Z,9.10
2019-04-22T15:33:25.871Z,11.25
2019-04-22T15:35:55.737Z,11.75
2019-04-22T15:38:26.150Z,15.03
2019-04-22T15:43:31.246Z,14.70
2019-04-22T15:46:03.346Z,14.83
2019-04-22T15:48:34.122Z,13.90
2019-04-22T15:51:05.081Z,12.98
2019-04-22T15:53:35.806Z,12.98
2019-04-22T15:56:06.056Z,10.85
2019-04-22T15:58:35.945Z,12.23
2019-04-22T16:01:12.930Z,11.38
2019-04-22T16:03:40.640Z,10.75
2019-04-22T16:06:12.200Z,11.63
2019-04-22T16:08:43.690Z,11.25
2019-04-22T16:11:14.082Z,10.70
2019-04-22T16:13:44.306Z,10.65
2019-04-22T16:16:14.600Z,11.20
2019-04-22T16:18:44.572Z,11.33
2019-04-22T16:21:27.677Z,12.28
2019-04-22T16:24:04.538Z,11.48
2019-04-22T16:26:52.055Z,11.78
2019-04-22T16:29:23.306Z,12.68
2019-04-22T16:31:53.478Z,14.95
2019-04-22T16:34:23.844Z,13.40
2019-04-22T16:36:54.614Z,14.78
2019-04-22T16:39:26.742Z,15.75
2019-04-22T16:41:57.010Z,13.15
2019-04-22T16:44:27.987Z,17.20
2019-04-22T16:46:57.812Z,18.32
2019-04-22T16:49:27.823Z,22.90
2019-04-22T16:51:58.415Z,21.90
2019-04-22T16:56:57.684Z,14.38
2019-04-22T16:59:28.673Z,14.60
2019-04-22T17:02:12.886Z,16.27
2019-04-22T17:04:44.484Z,15.08
2019-04-22T17:07:16.151Z,14.85
2019-04-22T17:09:46.103Z,15.53
2019-04-22T17:12:16.226Z,19.10
2019-04-22T17:14:52.690Z,22.98
2019-04-22T17:17:18.312Z,31.90
2019-04-22T17:19:49.406Z,22.98
2019-04-22T17:22:19.699Z,21.87
2019-04-22T17:25:00.124Z,22.10
2019-04-22T17:30:43.793Z,40.67
2019-04-22T17:39:31.611Z,43.92
2019-04-22T17:42:10.924Z,42.43
2019-04-22T17:44:48.356Z,39.65
2019-04-22T17:47:20.621Z,33.58
2019-04-22T17:50:08.297Z,31.15
2019-04-22T17:52:39.261Z,26.85
2019-04-22T17:55:11.233Z,28.32
2019-04-22T17:57:41.599Z,25.62
2019-04-22T18:00:23.598Z,21.30
2019-04-22T18:02:45.919Z,26.27
2019-04-22T18:05:07.611Z,31.37
2019-04-22T18:07:54.875Z,68.65
2019-04-22T18:13:12.044Z,105.75
2019-04-22T18:15:29.391Z,131.22
2019-04-22T18:18:09.136Z,86.55
2019-04-22T18:20:32.228Z,57.65
2019-04-22T18:22:56.774Z,45.35
2019-04-22T18:25:34.212Z,49.85
2019-04-22T18:30:35.299Z,52.23
2019-04-22T18:33:19.382Z,77.87
2019-04-22T18:35:44.488Z,49.53
2019-04-22T18:38:33.157Z,51.60
2019-04-22T18:40:53.655Z,56.55
2019-04-22T18:43:27.723Z,48.92
2019-04-22T18:46:06.544Z,58.55
2019-04-22T18:48:33.303Z,39.03
2019-04-22T18:51:17.225Z,31.60
2019-04-22T18:53:56.935Z,46.18
2019-04-22T18:56:22.017Z,33.75
2019-04-22T18:58:44.934Z,30.52
2019-04-22T19:01:05.960Z,36.38
2019-04-22T19:03:49.713Z,86.85
2019-04-22T19:06:44.090Z,179.12
2019-04-22T19:09:05.620Z,109.27
2019-04-22T19:11:35.462Z,55.33
2019-04-22T19:14:02.308Z,48.25
2019-04-22T19:19:27.513Z,89.15
2019-04-22T19:21:37.970Z,77.32
2019-04-22T19:24:09.478Z,45.45
2019-04-22T19:26:50.075Z,51.98
2019-04-22T19:29:16.875Z,50.60
2019-04-22T19:31:45.474Z,38.23
2019-04-22T19:34:16.620Z,47.27
2019-04-22T19:36:51.599Z,51.08
2019-04-22T19:39:19.246Z,64.67
2019-04-22T19:41:55.570Z,108.35
2019-04-22T19:44:29.153Z,73.60
2019-04-22T19:47:18.161Z,105.17
2019-04-22T19:49:42.715Z,50.45
2019-04-22T19:52:11.239Z,52.67
2019-04-22T19:54:34.146Z,46.73
2019-04-22T19:56:57.443Z,55.33
2019-04-22T19:59:32.748Z,53.20
2019-04-22T20:02:04.595Z,63.78
2019-04-22T20:04:46.301Z,69.75
2019-04-22T20:07:14.134Z,71.50
2019-04-22T20:09:49.397Z,93.37
2019-04-22T20:12:16.565Z,103.70
2019-04-22T20:14:49.718Z,74.32
2019-04-22T20:17:28.613Z,58.42
2019-04-22T20:19:55.502Z,48.20
2019-04-22T20:22:26.720Z,37.58
2019-04-22T20:24:47.583Z,42.25
2019-04-22T20:27:30.338Z,39.50
2019-04-22T20:29:58.274Z,39.73
2019-04-22T20:32:26.581Z,45.35
2019-04-22T20:35:06.012Z,57.58
2019-04-22T20:37:38.562Z,41.80
2019-04-22T20:40:05.499Z,67.37
2019-04-22T20:42:43.761Z,85.72
2019-04-22T20:45:11.743Z,80.07
2019-04-22T20:47:35.738Z,90.75
2019-04-22T20:50:10.898Z,46.63
2019-04-22T20:55:10.777Z,49.63
2019-04-22T20:57:48.302Z,59.03
2019-04-22T21:00:15.084Z,61.77
2019-04-22T21:02:40.192Z,57.30
2019-04-22T21:05:16.753Z,55.70
2019-04-22T21:08:01.545Z,54.75
2019-04-22T21:10:18.608Z,55.35
2019-04-22T21:12:54.253Z,52.98
2019-04-22T21:15:31.454Z,57.40
2019-04-22T21:18:01.192Z,48.60
2019-04-22T21:20:41.169Z,35.98
2019-04-22T21:23:02.944Z,36.88
2019-04-22T21:25:26.402Z,35.70
2019-04-22T21:28:11.322Z,39.85
2019-04-22T21:30:37.657Z,32.23
2019-04-22T21:33:08.289Z,34.23
2019-04-22T21:35:55.047Z,33.48
2019-04-22T21:38:19.014Z,29.77
2019-04-22T21:40:43.802Z,32.65
2019-04-22T21:43:18.514Z,35.88
2019-04-22T21:45:45.426Z,37.00
2019-04-22T21:48:27.933Z,45.17
2019-04-22T21:51:04.817Z,43.45
2019-04-22T21:53:31.825Z,41.30
2019-04-22T21:56:00.348Z,42.62
2019-04-22T21:58:31.849Z,40.25
2019-04-22T22:01:33.037Z,40.45
2019-04-22T22:03:55.539Z,39.85
2019-04-22T22:06:15.123Z,40.25
2019-04-22T22:08:57.865Z,39.20
2019-04-22T22:11:24.106Z,39.13
2019-04-22T22:13:56.382Z,41.20
2019-04-22T22:16:25.069Z,43.80
2019-04-22T22:19:00.831Z,45.63
2019-04-22T22:21:40.711Z,51.98
2019-04-22T22:24:08.980Z,62.13
2019-04-22T22:26:40.099Z,51.55
2019-04-22T22:29:10.161Z,53.30
2019-04-22T22:34:13.747Z,57.60
2019-04-22T22:36:36.328Z,55.52
2019-04-22T22:39:09.972Z,55.05
2019-04-22T22:41:25.963Z,51.88
2019-04-22T22:44:03.218Z,48.13
2019-04-22T22:46:37.430Z,53.23
2019-04-22T22:49:23.708Z,57.00
2019-04-22T22:52:00.015Z,50.98
2019-04-22T22:54:25.113Z,54.63
2019-04-22T22:57:17.696Z,51.83
2019-04-22T22:59:29.215Z,54.33
2019-04-22T23:01:54.142Z,66.62
2019-04-22T23:04:37.623Z,61.75
2019-04-22T23:07:06.911Z,59.75
2019-04-22T23:09:30.766Z,71.97
2019-04-22T23:12:12.172Z,73.55
2019-04-22T23:14:38.211Z,59.98
2019-04-22T23:16:55.044Z,50.12
2019-04-22T23:19:17.943Z,45.55
2019-04-22T23:21:52.677Z,38.38
2019-04-22T23:24:58.163Z,38.60
2019-04-22T23:27:40.278Z,49.75
2019-04-22T23:30:05.394Z,47.60
2019-04-22T23:32:35.725Z,42.80
2019-04-22T23:35:33.261Z,42.43
2019-04-22T23:38:12.081Z,37.90
2019-04-22T23:40:38.602Z,40.43
2019-04-22T23:43:15.314Z,40.52
2019-04-22T23:45:46.670Z,41.28
2019-04-22T23:48:13.065Z,40.67
2019-04-22T23:50:54.146Z,44.42
2019-04-22T23:53:33.122Z,43.95
2019-04-22T23:56:01.809Z,41.10
2019-04-22T23:58:50.029Z,44.70
